Sterling, AK (99672)

5:05 PM AKST on February 06, 2016 (GMT -0900)
Mackey Lake Road | | Change Station
CLOSE
Current Station
Personal Weather Station
Location: Soldotna, AK
Elevation: 201 ft
Nearby Weather Stations

Elev 201 ft 60.50 °N, 151.02 °W | Updated 8 seconds ago

Overcast
Overcast
32.2 °F
Feels Like 32 °F
N
0.0
Wind Variable Wind from WSW
Gusts 0.0 mph

Today
High -- | Low -- °F
--% Chance of Precip.
Yesterday
High -- | Low -- °F
Precip. -- in
Pressure 29.82 in
Visibility 10.0 miles
Clouds Mostly Cloudy 1100 ft
Overcast 5500 ft
Windchill 32 °F
Dew Point 30 °F
Humidity 92%
Rainfall 0.00 in
Snow Depth Not available.
9:07 AM 5:27 PM
Waning Crescent, 3% visible
METAR PASX 070156Z AUTO 00000KT 10SM BKN011 OVC055 00/M01 A2982 RMK AO1
Pressure 29.82 in
Visibility 10.0 miles
Clouds Mostly Cloudy 1100 ft
Overcast 5500 ft
Windchill 32 °F
Dew Point 30 °F
Humidity 92%
Rainfall 0.00 in
Snow Depth Not available.
9:07 AM 5:27 PM
Waning Crescent, 3% visible
METAR PASX 070156Z AUTO 00000KT 10SM BKN011 OVC055 00/M01 A2982 RMK AO1

10-Day Weather Forecast

Almanac

Astronomy

Feb. 06, 2016 Rise Set
Actual Time
Civil Twilight
Nautical Twilight
Astronomical Twilight
Moon
Length of Visible Light
Length of Day
Tomorrow will be .
, % of the Moon is Illuminated

Today's Extremes

State Highs State Lows

Community

WunderPhotos

Upload Photos

1,891,132 photos uploaded!

WunderBlog® & News

Nearby

Air Quality

  Air Quality AQ Index Pollutant
Not available.

Snow Depth

Station Depth Elevation

Earthquake Activity

City Distance Mag. Time & Date
Minimum magnitude displayed is 2.5.

Coastal Water Temperatures

Place Temperature

Stations

Nearby Weather Stations

Station Location Temp. Windchill Dew Point Humidity Wind Precip. Elev Updated Type
                   

Watches & Warnings

There are currently no watches in effect.